sensor_id;sensor_type;location;lat;lon;timestamp;temperature;humidity
55151;DHT22;41041;43.162;20.538;2023-12-04T04:14:34;51.30;2227.20
55151;DHT22;41041;43.162;20.538;2023-12-04T04:17:00;26.40;2201.60
55151;DHT22;41041;43.162;20.538;2023-12-04T04:19:25;26.20;2201.60
55151;DHT22;41041;43.162;20.538;2023-12-04T04:21:51;26.20;2201.60
55151;DHT22;41041;43.162;20.538;2023-12-04T04:24:17;26.10;2201.60
55151;DHT22;41041;43.162;20.538;2023-12-04T04:26:43;26.00;2201.60
55151;DHT22;41041;43.162;20.538;2023-12-04T04:29:09;26.00;2201.60
55151;DHT22;41041;43.162;20.538;2023-12-04T04:48:38;26.20;2201.60
55151;DHT22;41041;43.162;20.538;2023-12-04T04:51:04;25.80;2201.60
55151;DHT22;41041;43.162;20.538;2023-12-04T04:53:30;26.00;2201.60
55151;DHT22;41041;43.162;20.538;2023-12-04T04:58:51;26.10;2201.60
55151;DHT22;41041;43.162;20.538;2023-12-04T05:01:17;51.20;2227.20
55151;DHT22;41041;43.162;20.538;2023-12-04T05:33:21;51.40;2227.20
55151;DHT22;41041;43.162;20.538;2023-12-04T05:35:48;26.50;2201.60
55151;DHT22;41041;43.162;20.538;2023-12-04T05:38:16;26.40;2201.60
55151;DHT22;41041;43.162;20.538;2023-12-04T05:40:42;26.40;2201.60
55151;DHT22;41041;43.162;20.538;2023-12-04T05:43:08;26.40;2201.60
55151;DHT22;41041;43.162;20.538;2023-12-04T05:48:56;26.40;2201.60
55151;DHT22;41041;43.162;20.538;2023-12-04T05:51:22;26.30;2201.60
55151;DHT22;41041;43.162;20.538;2023-12-04T05:53:48;26.40;2201.60
55151;DHT22;41041;43.162;20.538;2023-12-04T05:59:35;26.40;2201.60
55151;DHT22;41041;43.162;20.538;2023-12-04T06:02:01;51.20;2227.20
55151;DHT22;41041;43.162;20.538;2023-12-04T06:04:27;26.50;2201.60
55151;DHT22;41041;43.162;20.538;2023-12-04T06:10:15;26.40;2201.60
55151;DHT22;41041;43.162;20.538;2023-12-04T06:12:40;26.50;2201.60
55151;DHT22;41041;43.162;20.538;2023-12-04T06:15:07;51.20;2227.20
55151;DHT22;41041;43.162;20.538;2023-12-04T06:17:33;51.20;2227.20
55151;DHT22;41041;43.162;20.538;2023-12-04T06:19:59;51.20;2227.20
55151;DHT22;41041;43.162;20.538;2023-12-04T06:22:25;51.40;2227.20
55151;DHT22;41041;43.162;20.538;2023-12-04T06:24:51;51.20;2227.20
55151;DHT22;41041;43.162;20.538;2023-12-04T06:27:18;51.30;2227.20
55151;DHT22;41041;43.162;20.538;2023-12-04T06:29:48;51.30;2227.20
55151;DHT22;41041;43.162;20.538;2023-12-04T06:32:14;51.30;2227.20
55151;DHT22;41041;43.162;20.538;2023-12-04T06:34:41;51.30;2227.20
55151;DHT22;41041;43.162;20.538;2023-12-04T06:37:11;51.30;2227.20
55151;DHT22;41041;43.162;20.538;2023-12-04T06:39:38;51.30;2227.20
55151;DHT22;41041;43.162;20.538;2023-12-04T06:42:05;51.40;2227.20
55151;DHT22;41041;43.162;20.538;2023-12-04T06:44:32;51.40;2227.20
55151;DHT22;41041;43.162;20.538;2023-12-04T06:47:00;51.50;2227.20
55151;DHT22;41041;43.162;20.538;2023-12-04T06:49:30;51.70;2227.20
55151;DHT22;41041;43.162;20.538;2023-12-04T07:27:14;51.50;2227.20
55151;DHT22;41041;43.162;20.538;2023-12-04T07:29:40;51.20;2227.20
55151;DHT22;41041;43.162;20.538;2023-12-04T07:32:06;26.50;2201.60
55151;DHT22;41041;43.162;20.538;2023-12-04T07:34:32;26.50;2201.60
55151;DHT22;41041;43.162;20.538;2023-12-04T07:36:57;26.40;2201.60
55151;DHT22;41041;43.162;20.538;2023-12-04T07:42:45;26.50;2201.60
55151;DHT22;41041;43.162;20.538;2023-12-04T07:45:11;51.30;2227.20
55151;DHT22;41041;43.162;20.538;2023-12-04T07:47:36;51.30;2227.20
55151;DHT22;41041;43.162;20.538;2023-12-04T07:50:02;51.30;2227.20
55151;DHT22;41041;43.162;20.538;2023-12-04T07:52:28;51.40;2227.20
55151;DHT22;41041;43.162;20.538;2023-12-04T07:54:54;51.50;2227.20
55151;DHT22;41041;43.162;20.538;2023-12-04T07:57:20;51.40;2227.20
55151;DHT22;41041;43.162;20.538;2023-12-04T07:59:46;51.40;2227.20
55151;DHT22;41041;43.162;20.538;2023-12-04T08:02:12;51.40;2227.20
55151;DHT22;41041;43.162;20.538;2023-12-04T08:04:38;51.50;2227.20
55151;DHT22;41041;43.162;20.538;2023-12-04T09:24:01;102.50;2227.20
55151;DHT22;41041;43.162;20.538;2023-12-04T09:26:27;77.70;2227.20
55151;DHT22;41041;43.162;20.538;2023-12-04T09:28:53;77.70;2227.20
55151;DHT22;41041;43.162;20.538;2023-12-04T09:31:19;77.70;2227.20
55151;DHT22;41041;43.162;20.538;2023-12-04T09:33:45;77.60;2227.20
55151;DHT22;41041;43.162;20.538;2023-12-04T09:36:11;77.70;2227.20
55151;DHT22;41041;43.162;20.538;2023-12-04T09:38:36;102.40;2227.20
55151;DHT22;41041;43.162;20.538;2023-12-04T09:41:09;102.60;2227.20
55151;DHT22;41041;43.162;20.538;2023-12-04T09:43:36;102.70;2227.20
55151;DHT22;41041;43.162;20.538;2023-12-04T09:46:02;102.80;2227.20
55151;DHT22;41041;43.162;20.538;2023-12-04T09:48:29;102.80;2227.20
55151;DHT22;41041;43.162;20.538;2023-12-04T09:50:57;102.70;2227.20
55151;DHT22;41041;43.162;20.538;2023-12-04T09:53:24;102.70;2227.20
55151;DHT22;41041;43.162;20.538;2023-12-04T09:55:52;102.70;2227.20
55151;DHT22;41041;43.162;20.538;2023-12-04T09:58:28;102.80;2227.20
55151;DHT22;41041;43.162;20.538;2023-12-04T10:00:57;103.30;2227.20
55151;DHT22;41041;43.162;20.538;2023-12-04T10:13:10;128.10;2252.80
55151;DHT22;41041;43.162;20.538;2023-12-04T10:15:46;103.30;2227.20
55151;DHT22;41041;43.162;20.538;2023-12-04T10:18:27;103.20;2227.20
55151;DHT22;41041;43.162;20.538;2023-12-04T10:20:56;103.10;2227.20
55151;DHT22;41041;43.162;20.538;2023-12-04T10:23:22;103.10;2227.20
55151;DHT22;41041;43.162;20.538;2023-12-04T10:25:49;103.10;2227.20
55151;DHT22;41041;43.162;20.538;2023-12-04T10:28:16;103.00;2227.20
55151;DHT22;41041;43.162;20.538;2023-12-04T10:30:42;103.00;2227.20
55151;DHT22;41041;43.162;20.538;2023-12-04T10:33:09;102.90;2227.20
55151;DHT22;41041;43.162;20.538;2023-12-04T10:43:59;128.00;2252.80
55151;DHT22;41041;43.162;20.538;2023-12-04T10:46:27;103.20;2227.20
55151;DHT22;41041;43.162;20.538;2023-12-04T10:56:19;103.20;2227.20
55151;DHT22;41041;43.162;20.538;2023-12-04T10:58:51;102.90;2227.20
55151;DHT22;41041;43.162;20.538;2023-12-04T11:01:18;103.00;2227.20
55151;DHT22;41041;43.162;20.538;2023-12-04T11:03:48;102.80;2227.20
55151;DHT22;41041;43.162;20.538;2023-12-04T11:06:16;102.80;2227.20
55151;DHT22;41041;43.162;20.538;2023-12-04T11:08:42;102.90;2227.20
55151;DHT22;41041;43.162;20.538;2023-12-04T11:11:17;102.90;2227.20
55151;DHT22;41041;43.162;20.538;2023-12-04T11:13:49;102.90;2227.20
55151;DHT22;41041;43.162;20.538;2023-12-04T11:16:26;102.80;2227.20
55151;DHT22;41041;43.162;20.538;2023-12-04T11:19:01;102.80;2227.20
55151;DHT22;41041;43.162;20.538;2023-12-04T11:21:31;102.80;2227.20
55151;DHT22;41041;43.162;20.538;2023-12-04T11:23:57;103.20;2227.20
55151;DHT22;41041;43.162;20.538;2023-12-04T11:26:24;103.00;2227.20
55151;DHT22;41041;43.162;20.538;2023-12-04T11:28:52;103.10;2227.20
55151;DHT22;41041;43.162;20.538;2023-12-04T11:31:21;103.20;2227.20
55151;DHT22;41041;43.162;20.538;2023-12-04T11:33:47;103.10;2227.20
55151;DHT22;41041;43.162;20.538;2023-12-04T11:36:13;103.20;2227.20
55151;DHT22;41041;43.162;20.538;2023-12-04T11:38:46;103.00;2227.20
55151;DHT22;41041;43.162;20.538;2023-12-04T11:41:16;103.00;2227.20
55151;DHT22;41041;43.162;20.538;2023-12-04T11:43:44;103.00;2227.20
55151;DHT22;41041;43.162;20.538;2023-12-04T11:46:11;103.10;2227.20
55151;DHT22;41041;43.162;20.538;2023-12-04T11:48:37;103.20;2227.20
55151;DHT22;41041;43.162;20.538;2023-12-04T11:51:05;103.20;2227.20
55151;DHT22;41041;43.162;20.538;2023-12-04T11:53:36;128.00;2252.80
55151;DHT22;41041;43.162;20.538;2023-12-04T11:56:11;103.30;2227.20
55151;DHT22;41041;43.162;20.538;2023-12-04T11:58:44;103.20;2227.20
55151;DHT22;41041;43.162;20.538;2023-12-04T12:01:11;103.10;2227.20
55151;DHT22;41041;43.162;20.538;2023-12-04T12:03:37;103.10;2227.20
55151;DHT22;41041;43.162;20.538;2023-12-04T12:06:14;103.10;2227.20
55151;DHT22;41041;43.162;20.538;2023-12-04T12:08:40;103.00;2227.20
55151;DHT22;41041;43.162;20.538;2023-12-04T12:11:06;103.20;2227.20
55151;DHT22;41041;43.162;20.538;2023-12-04T12:13:32;128.00;2252.80
55151;DHT22;41041;43.162;20.538;2023-12-04T12:15:58;103.00;2227.20
55151;DHT22;41041;43.162;20.538;2023-12-04T12:18:24;102.90;2227.20
55151;DHT22;41041;43.162;20.538;2023-12-04T12:20:50;103.00;2227.20
55151;DHT22;41041;43.162;20.538;2023-12-04T12:23:16;103.20;2227.20
55151;DHT22;41041;43.162;20.538;2023-12-04T12:25:44;103.20;2227.20
55151;DHT22;41041;43.162;20.538;2023-12-04T12:28:10;103.20;2227.20
55151;DHT22;41041;43.162;20.538;2023-12-04T12:30:35;128.00;2252.80
55151;DHT22;41041;43.162;20.538;2023-12-04T12:33:01;103.30;2227.20
55151;DHT22;41041;43.162;20.538;2023-12-04T12:35:27;103.20;2227.20
55151;DHT22;41041;43.162;20.538;2023-12-04T12:37:53;103.10;2227.20
55151;DHT22;41041;43.162;20.538;2023-12-04T12:40:20;103.00;2227.20
55151;DHT22;41041;43.162;20.538;2023-12-04T12:42:46;103.00;2227.20
55151;DHT22;41041;43.162;20.538;2023-12-04T12:45:12;103.00;2227.20
55151;DHT22;41041;43.162;20.538;2023-12-04T12:47:42;103.00;2227.20
55151;DHT22;41041;43.162;20.538;2023-12-04T12:53:48;103.00;2227.20
55151;DHT22;41041;43.162;20.538;2023-12-04T13:18:56;128.00;2252.80
55151;DHT22;41041;43.162;20.538;2023-12-04T13:26:52;128.00;2252.80
55151;DHT22;41041;43.162;20.538;2023-12-04T13:29:18;103.10;2227.20
55151;DHT22;41041;43.162;20.538;2023-12-04T13:31:44;103.00;2227.20
55151;DHT22;41041;43.162;20.538;2023-12-04T13:34:12;102.90;2227.20
55151;DHT22;41041;43.162;20.538;2023-12-04T13:36:38;103.10;2227.20
55151;DHT22;41041;43.162;20.538;2023-12-04T13:39:03;102.80;2227.20
55151;DHT22;41041;43.162;20.538;2023-12-04T14:05:31;102.80;2227.20
55151;DHT22;41041;43.162;20.538;2023-12-04T14:07:58;102.50;2227.20
55151;DHT22;41041;43.162;20.538;2023-12-04T14:13:24;102.90;2227.20
55151;DHT22;41041;43.162;20.538;2023-12-04T14:19:14;77.60;2227.20
55151;DHT22;41041;43.162;20.538;2023-12-04T15:11:48;51.80;2227.20
55151;DHT22;41041;43.162;20.538;2023-12-04T16:17:02;51.50;2227.20
55151;DHT22;41041;43.162;20.538;2023-12-04T16:19:28;51.30;2227.20
55151;DHT22;41041;43.162;20.538;2023-12-04T16:21:55;51.70;2227.20
55151;DHT22;41041;43.162;20.538;2023-12-04T16:29:58;52.00;2227.20
55151;DHT22;41041;43.162;20.538;2023-12-04T17:12:36;51.70;2227.20
55151;DHT22;41041;43.162;20.538;2023-12-04T17:15:02;51.60;2227.20
55151;DHT22;41041;43.162;20.538;2023-12-04T17:17:41;51.70;2227.20
55151;DHT22;41041;43.162;20.538;2023-12-04T17:23:31;51.70;2227.20
55151;DHT22;41041;43.162;20.538;2023-12-04T17:29:19;51.60;2227.20
55151;DHT22;41041;43.162;20.538;2023-12-04T17:31:45;51.50;2227.20
55151;DHT22;41041;43.162;20.538;2023-12-04T17:34:11;51.60;2227.20
55151;DHT22;41041;43.162;20.538;2023-12-04T17:39:59;51.60;2227.20
55151;DHT22;41041;43.162;20.538;2023-12-04T17:42:25;51.50;2227.20
55151;DHT22;41041;43.162;20.538;2023-12-04T17:44:51;51.50;2227.20
55151;DHT22;41041;43.162;20.538;2023-12-04T17:47:17;51.60;2227.20
55151;DHT22;41041;43.162;20.538;2023-12-04T17:49:42;51.50;2227.20
55151;DHT22;41041;43.162;20.538;2023-12-04T17:52:09;51.50;2227.20
55151;DHT22;41041;43.162;20.538;2023-12-04T17:54:36;51.40;2227.20
55151;DHT22;41041;43.162;20.538;2023-12-04T17:57:02;51.20;2227.20
55151;DHT22;41041;43.162;20.538;2023-12-04T17:59:28;51.30;2227.20
55151;DHT22;41041;43.162;20.538;2023-12-04T18:01:54;51.30;2227.20
55151;DHT22;41041;43.162;20.538;2023-12-04T18:04:19;51.20;2227.20
55151;DHT22;41041;43.162;20.538;2023-12-04T18:06:45;26.50;2201.60
55151;DHT22;41041;43.162;20.538;2023-12-04T18:09:12;26.40;2201.60
55151;DHT22;41041;43.162;20.538;2023-12-04T18:11:38;26.40;2201.60
55151;DHT22;41041;43.162;20.538;2023-12-04T18:14:04;26.40;2201.60
55151;DHT22;41041;43.162;20.538;2023-12-04T18:16:30;26.50;2201.60
55151;DHT22;41041;43.162;20.538;2023-12-04T18:18:56;26.50;2201.60
55151;DHT22;41041;43.162;20.538;2023-12-04T18:21:23;51.30;2227.20
55151;DHT22;41041;43.162;20.538;2023-12-04T18:27:11;51.30;2227.20
55151;DHT22;41041;43.162;20.538;2023-12-04T18:29:37;51.30;2227.20
55151;DHT22;41041;43.162;20.538;2023-12-04T18:32:03;51.20;2227.20
55151;DHT22;41041;43.162;20.538;2023-12-04T18:34:31;51.30;2227.20
55151;DHT22;41041;43.162;20.538;2023-12-04T18:37:22;51.40;2227.20
55151;DHT22;41041;43.162;20.538;2023-12-04T18:39:50;51.30;2227.20
55151;DHT22;41041;43.162;20.538;2023-12-04T18:42:16;51.40;2227.20
55151;DHT22;41041;43.162;20.538;2023-12-04T18:44:42;51.20;2227.20
55151;DHT22;41041;43.162;20.538;2023-12-04T18:47:08;51.30;2227.20
55151;DHT22;41041;43.162;20.538;2023-12-04T18:49:39;51.30;2227.20
55151;DHT22;41041;43.162;20.538;2023-12-04T18:52:06;26.50;2201.60
55151;DHT22;41041;43.162;20.538;2023-12-04T18:54:32;26.50;2201.60
55151;DHT22;41041;43.162;20.538;2023-12-04T18:56:57;26.50;2201.60
55151;DHT22;41041;43.162;20.538;2023-12-04T18:59:24;26.50;2201.60
55151;DHT22;41041;43.162;20.538;2023-12-04T19:01:50;26.50;2201.60
55151;DHT22;41041;43.162;20.538;2023-12-04T19:04:15;26.30;2201.60
55151;DHT22;41041;43.162;20.538;2023-12-04T19:19:06;51.60;2227.20
55151;DHT22;41041;43.162;20.538;2023-12-04T19:21:32;26.50;2201.60
55151;DHT22;41041;43.162;20.538;2023-12-04T19:23:58;26.50;2201.60
55151;DHT22;41041;43.162;20.538;2023-12-04T19:29:45;51.30;2227.20
55151;DHT22;41041;43.162;20.538;2023-12-04T19:32:11;26.50;2201.60
55151;DHT22;41041;43.162;20.538;2023-12-04T19:34:37;26.30;2201.60
55151;DHT22;41041;43.162;20.538;2023-12-04T22:26:13;51.70;2227.20
55151;DHT22;41041;43.162;20.538;2023-12-04T22:28:39;51.30;2227.20
55151;DHT22;41041;43.162;20.538;2023-12-04T22:34:40;51.30;2227.20
55151;DHT22;41041;43.162;20.538;2023-12-04T22:37:06;51.50;2227.20
55151;DHT22;41041;43.162;20.538;2023-12-04T22:39:32;51.60;2227.20
55151;DHT22;41041;43.162;20.538;2023-12-04T22:41:58;51.50;2227.20
55151;DHT22;41041;43.162;20.538;2023-12-04T22:44:24;51.50;2227.20
55151;DHT22;41041;43.162;20.538;2023-12-04T22:46:49;51.60;2227.20
55151;DHT22;41041;43.162;20.538;2023-12-04T22:49:15;51.50;2227.20
55151;DHT22;41041;43.162;20.538;2023-12-04T22:55:21;51.60;2227.20
55151;DHT22;41041;43.162;20.538;2023-12-04T23:07:53;51.50;2227.20
55151;DHT22;41041;43.162;20.538;2023-12-04T23:10:18;51.30;2227.20
55151;DHT22;41041;43.162;20.538;2023-12-04T23:12:45;26.50;2201.60
55151;DHT22;41041;43.162;20.538;2023-12-04T23:15:13;26.40;2201.60
